Louisville, KY (40223)

01:17 PM EST del 25 Gennaio 2015 (GMT -0500)
Owl Creek Country Club | Change Station
CLOSE
Current Station
Stazione meteo personale
Location: Anchorage, KY
Altitudine: 730 ft
Stazioni meteo nelle vicinanze

Alt. 730 ft 38.28 °N, 85.53 °W | Updated 9 minutes ago

Pioggia
Pioggia
41.8 °F
Sembra 42 °F
N
2.0
Vento Variabile Vento da SSE
Gusts 3.0 mph

Oggi
Massima -- | Minima -- °F
--% Possibilità di precip.
Ieri
Massima -- | Minima -- °F
Precip. -- in
7:52 AM 5:56 PM
Luna crescente, 34% visible
Pressione 29.68 in
Visibilità 10.0 miglia
Nuvole Coperto 6000 ft
Raffreddamento del vento 42 °F
Punto di rugiada 38 °F
Umidità 85%
Piovosità 0.00 in
Spessore del manto nevoso Non disponibile.
Raggi UV 1 fuori da 12
Polline .10 fuori da 12
Qualità dell'aria Non disponibile.
Flu Activity Non disponibile.
METAR KLOU 251753Z 16005KT 10SM -RA OVC060 06/01 A2968 RMK AO2 SLP051 P0000 60000 T00610011 10061 20039 58014

More Conditions Fewer Conditions

Pressione 29.68 in
Visibilità 10.0 miglia
Nuvole Coperto 6000 ft
Raffreddamento del vento 42 °F
Punto di rugiada 38 °F
Umidità 85%
Piovosità 0.00 in
Spessore del manto nevoso Non disponibile.
Raggi UV 1 fuori da 12
Polline .10 fuori da 12
Qualità dell'aria Non disponibile.
Flu Activity Non disponibile.
METAR KLOU 251753Z 16005KT 10SM -RA OVC060 06/01 A2968 RMK AO2 SLP051 P0000 60000 T00610011 10061 20039 58014

More Conditions Fewer Conditions

10-Day Weather Forecast

Almanac

Astronomia

Jan. 25, 2015 Alba Tramonto
Ora attuale
Crepuscolo civile
Crepuscolo nautico
Crepuscolo astronomico
Luna
Estensione della luce visibile
Lunghezza del giorno
Tomorrow will be .
, % of the Moon is Illuminated

Gli estremi di oggi

State Highs State Lows

Community

WunderPhotos

Upload Photos

1,790,011 foto caricate!

WunderBlogs® & News

Nearby

Qualità dell'aria

  Qualità dell'aria Indice AQ Inquinante
Not available.

Profondità neve

Stazione Profondità Altitudine

Attività sismica

Città  Distanza Mag. Data & Ora
Minimo Magnitudo Mostrato è 2.5.

Temperature delle acque costiere

Località Temperatura

Stazioni meteo nelle vicinanze